createdAt,value
2018-11-10T00:00:43.212Z,9.90
2018-11-10T00:03:11.776Z,9.90
2018-11-10T00:05:40.610Z,9.90
2018-11-10T00:08:09.615Z,9.80
2018-11-10T00:10:39.061Z,9.90
2018-11-10T00:13:07.955Z,9.80
2018-11-10T00:15:36.612Z,9.80
2018-11-10T00:18:05.876Z,9.80
2018-11-10T00:20:34.174Z,9.80
2018-11-10T00:24:27.122Z,9.80
2018-11-10T00:26:55.704Z,9.80
2018-11-10T00:29:25.152Z,9.70
2018-11-10T00:31:53.422Z,9.70
2018-11-10T00:34:21.926Z,9.70
2018-11-10T00:36:50.277Z,9.70
2018-11-10T00:39:19.412Z,9.70
2018-11-10T00:41:47.957Z,9.70
2018-11-10T00:44:16.595Z,9.70
2018-11-10T00:46:45.441Z,9.70
2018-11-10T00:49:14.328Z,9.70
2018-11-10T00:51:46.225Z,9.70
2018-11-10T00:54:15.547Z,9.70
2018-11-10T00:56:44.422Z,9.70
2018-11-10T00:59:13.472Z,9.70
2018-11-10T01:01:42.260Z,9.80
2018-11-10T01:04:10.589Z,9.80
2018-11-10T01:06:39.077Z,9.80
2018-11-10T01:09:08.570Z,9.80
2018-11-10T01:11:36.991Z,9.90
2018-11-10T01:14:06.188Z,9.80
2018-11-10T01:16:36.753Z,9.90
2018-11-10T01:19:05.603Z,9.90
2018-11-10T01:21:35.078Z,9.90
2018-11-10T01:24:05.832Z,9.90
2018-11-10T01:26:34.479Z,9.90
2018-11-10T01:29:03.858Z,9.90
2018-11-10T01:31:33.123Z,9.90
2018-11-10T01:34:01.877Z,10.00
2018-11-10T01:36:30.948Z,10.00
2018-11-10T01:39:02.118Z,10.00
2018-11-10T01:41:30.783Z,10.10
2018-11-10T01:43:59.350Z,10.10
2018-11-10T01:46:30.476Z,10.20
2018-11-10T01:49:00.152Z,10.30
2018-11-10T01:51:28.829Z,10.30
2018-11-10T01:53:58.592Z,10.30
2018-11-10T01:56:28.506Z,10.40
2018-11-10T01:58:57.529Z,10.40
2018-11-10T02:01:30.421Z,10.40
2018-11-10T02:03:59.401Z,10.50
2018-11-10T02:06:28.729Z,10.50
2018-11-10T02:08:57.197Z,10.60
2018-11-10T02:11:26.105Z,10.60
2018-11-10T02:13:54.711Z,10.60
2018-11-10T02:16:23.128Z,10.60
2018-11-10T02:18:51.512Z,10.70
2018-11-10T02:21:19.770Z,10.70
2018-11-10T02:23:48.468Z,10.70
2018-11-10T02:26:16.765Z,10.80
2018-11-10T02:28:45.099Z,10.90
2018-11-10T02:31:13.442Z,10.90
2018-11-10T02:33:41.768Z,10.90
2018-11-10T02:36:10.067Z,10.90
2018-11-10T02:38:38.481Z,11.00
2018-11-10T02:41:06.727Z,11.00
2018-11-10T02:43:35.733Z,11.00
2018-11-10T02:46:04.070Z,11.10
2018-11-10T02:48:32.529Z,11.10
2018-11-10T02:51:01.770Z,11.10
2018-11-10T02:53:30.267Z,11.20
2018-11-10T02:55:58.659Z,11.20
2018-11-10T02:58:26.967Z,11.20
2018-11-10T03:00:55.255Z,11.10
2018-11-10T03:03:24.551Z,11.10
2018-11-10T03:05:52.861Z,11.10
2018-11-10T03:08:21.172Z,11.10
2018-11-10T03:10:49.494Z,11.20
2018-11-10T03:13:17.846Z,11.10
2018-11-10T03:15:46.230Z,11.20
2018-11-10T03:18:14.550Z,11.20
2018-11-10T03:20:42.795Z,11.20
2018-11-10T03:23:11.299Z,11.20
2018-11-10T03:25:39.691Z,11.30
2018-11-10T03:28:08.163Z,11.30
2018-11-10T03:30:36.629Z,11.30
2018-11-10T03:33:05.349Z,11.40
2018-11-10T03:35:33.739Z,11.40
2018-11-10T03:38:02.049Z,11.40
2018-11-10T03:40:30.353Z,11.40
2018-11-10T03:42:58.691Z,11.50
2018-11-10T03:45:26.976Z,11.50
2018-11-10T03:47:55.367Z,11.50
2018-11-10T03:50:23.666Z,11.50
2018-11-10T03:52:51.948Z,11.50
2018-11-10T03:55:20.242Z,11.60
2018-11-10T03:57:48.563Z,11.60
2018-11-10T04:00:16.887Z,11.60
2018-11-10T04:02:46.351Z,11.60
2018-11-10T04:05:15.285Z,11.60
2018-11-10T04:07:44.773Z,11.70
2018-11-10T04:10:13.909Z,11.70
2018-11-10T04:12:42.430Z,11.70
2018-11-10T04:15:10.731Z,11.80
2018-11-10T04:17:39.054Z,11.80
2018-11-10T04:20:08.474Z,11.80
2018-11-10T04:22:37.755Z,11.80
2018-11-10T04:25:07.859Z,11.80
2018-11-10T04:27:36.822Z,11.80
2018-11-10T04:30:06.460Z,11.90
2018-11-10T04:32:35.575Z,11.90
2018-11-10T04:35:04.172Z,11.90
2018-11-10T04:37:32.474Z,11.90
2018-11-10T04:40:00.735Z,11.90
2018-11-10T04:42:29.067Z,11.90
2018-11-10T04:44:57.499Z,12.00
2018-11-10T04:47:25.803Z,11.90
2018-11-10T04:49:54.120Z,11.90
2018-11-10T04:52:22.517Z,11.90
2018-11-10T04:54:51.673Z,11.90
2018-11-10T04:57:20.794Z,11.80
2018-11-10T04:59:49.145Z,11.80
2018-11-10T05:02:17.420Z,11.80
2018-11-10T05:04:45.653Z,11.80
2018-11-10T05:07:13.956Z,11.80
2018-11-10T05:09:42.261Z,11.80
2018-11-10T05:12:10.564Z,11.80
2018-11-10T05:14:39.744Z,11.80
2018-11-10T05:17:08.011Z,11.70
2018-11-10T05:19:36.323Z,11.70
2018-11-10T05:22:04.853Z,11.80
2018-11-10T05:24:33.969Z,11.80
2018-11-10T05:27:02.482Z,11.80
2018-11-10T05:29:30.788Z,11.80
2018-11-10T05:32:00.025Z,11.80
2018-11-10T05:34:28.413Z,11.80
2018-11-10T05:36:56.721Z,11.80
2018-11-10T05:39:25.030Z,11.80
2018-11-10T05:41:53.360Z,11.90
2018-11-10T05:44:21.645Z,11.90
2018-11-10T05:46:49.940Z,11.90
2018-11-10T05:49:18.216Z,11.90
2018-11-10T05:51:46.487Z,11.90
2018-11-10T05:54:14.731Z,12.00
2018-11-10T05:56:42.996Z,11.90
2018-11-10T05:59:11.531Z,12.00
2018-11-10T06:01:39.837Z,11.90
2018-11-10T06:04:09.161Z,12.00
2018-11-10T06:06:37.712Z,12.00
2018-11-10T06:09:08.640Z,12.10
2018-11-10T06:11:37.276Z,12.10
2018-11-10T06:14:05.752Z,12.20
2018-11-10T06:16:34.380Z,12.20
2018-11-10T06:19:02.865Z,12.30
2018-11-10T06:21:31.243Z,12.40
2018-11-10T06:23:59.583Z,12.40
2018-11-10T06:26:28.707Z,12.50
2018-11-10T06:28:57.072Z,12.60
2018-11-10T06:31:25.454Z,12.60
2018-11-10T06:33:54.925Z,12.70
2018-11-10T06:36:23.218Z,12.70
2018-11-10T06:38:51.564Z,12.70
2018-11-10T06:41:19.890Z,12.70
2018-11-10T06:43:48.151Z,12.70
2018-11-10T06:46:16.438Z,12.80
2018-11-10T06:48:45.056Z,12.80
2018-11-10T06:51:13.646Z,12.80
2018-11-10T06:53:42.542Z,12.80
2018-11-10T06:56:11.047Z,12.80
2018-11-10T06:58:40.672Z,12.80
2018-11-10T07:01:09.074Z,12.80
2018-11-10T07:03:37.424Z,12.80
2018-11-10T07:06:06.297Z,12.80
2018-11-10T07:08:34.616Z,12.70
2018-11-10T07:11:02.935Z,12.70
2018-11-10T07:13:31.259Z,12.70
2018-11-10T07:15:59.596Z,12.70
2018-11-10T07:18:27.850Z,12.70
2018-11-10T07:20:56.115Z,12.70
2018-11-10T07:23:24.439Z,12.60
2018-11-10T07:25:52.895Z,12.60
2018-11-10T07:28:21.331Z,12.60
2018-11-10T07:30:49.897Z,12.50
2018-11-10T07:33:18.446Z,12.50
2018-11-10T07:35:47.150Z,12.50
2018-11-10T07:38:15.684Z,12.60
2018-11-10T07:40:44.051Z,12.50
2018-11-10T07:43:12.460Z,12.50
2018-11-10T07:45:40.687Z,12.50
2018-11-10T07:48:08.985Z,12.50
2018-11-10T07:50:37.363Z,12.50
2018-11-10T07:53:05.824Z,12.50
2018-11-10T07:55:34.213Z,12.40
2018-11-10T07:58:35.855Z,12.40
2018-11-10T08:01:04.251Z,12.40
2018-11-10T08:03:32.533Z,12.40
2018-11-10T08:06:00.831Z,12.40
2018-11-10T08:08:29.839Z,12.40
2018-11-10T08:10:58.503Z,12.40
2018-11-10T08:13:27.024Z,12.30
2018-11-10T08:15:55.414Z,12.30
2018-11-10T08:18:24.563Z,12.30
2018-11-10T08:20:52.966Z,12.40
2018-11-10T08:23:21.573Z,12.40
2018-11-10T08:25:49.848Z,12.50
2018-11-10T08:28:18.124Z,12.40
2018-11-10T08:30:53.128Z,12.40
2018-11-10T08:33:21.400Z,12.40
2018-11-10T08:35:49.739Z,12.40
2018-11-10T08:38:18.004Z,12.50
2018-11-10T08:40:46.545Z,12.50
2018-11-10T08:43:14.997Z,12.50
2018-11-10T08:45:43.643Z,12.50
2018-11-10T08:48:12.164Z,12.60
2018-11-10T08:50:40.428Z,12.60
2018-11-10T08:53:08.906Z,12.50
2018-11-10T08:55:37.407Z,12.60
2018-11-10T08:58:06.627Z,12.70
2018-11-10T09:00:35.118Z,12.60
2018-11-10T09:03:03.907Z,12.70
2018-11-10T09:05:32.461Z,12.70
2018-11-10T09:08:00.902Z,12.80
2018-11-10T09:10:29.391Z,12.80
2018-11-10T09:12:57.686Z,12.80
2018-11-10T09:15:26.020Z,13.00
2018-11-10T09:17:54.544Z,13.10
2018-11-10T09:20:22.747Z,13.10
2018-11-10T09:22:51.060Z,13.10
2018-11-10T09:25:19.402Z,13.10
2018-11-10T09:27:47.694Z,13.30
2018-11-10T09:30:16.982Z,13.30
2018-11-10T09:32:45.285Z,13.40
2018-11-10T09:35:14.475Z,13.50
2018-11-10T09:37:43.259Z,13.40
2018-11-10T09:40:14.232Z,13.50
2018-11-10T09:42:43.314Z,13.60
2018-11-10T09:45:13.413Z,13.60
2018-11-10T09:47:42.115Z,13.60
2018-11-10T09:50:13.083Z,13.70
2018-11-10T09:52:44.009Z,13.70
2018-11-10T09:55:13.045Z,13.70
2018-11-10T09:57:41.677Z,13.70
2018-11-10T10:00:14.783Z,13.70
2018-11-10T10:02:44.009Z,13.70
2018-11-10T10:05:13.204Z,13.70
2018-11-10T10:07:42.657Z,13.70
2018-11-10T10:10:12.842Z,13.70
2018-11-10T10:12:41.813Z,13.70
2018-11-10T10:15:12.232Z,13.80
2018-11-10T10:17:41.649Z,13.90
2018-11-10T10:20:12.335Z,13.90
2018-11-10T10:22:40.711Z,13.90
2018-11-10T10:25:12.298Z,13.90
2018-11-10T10:27:40.679Z,13.90
2018-11-10T10:30:14.503Z,13.90
2018-11-10T10:32:43.646Z,14.00
2018-11-10T10:35:12.917Z,14.10
2018-11-10T10:37:41.180Z,14.10
2018-11-10T10:40:11.416Z,14.10
2018-11-10T10:42:39.917Z,14.10
2018-11-10T10:45:12.401Z,14.10
2018-11-10T10:47:41.111Z,14.10
2018-11-10T10:50:11.351Z,14.00
2018-11-10T10:52:39.654Z,14.10
2018-11-10T10:55:08.468Z,14.10
2018-11-10T10:57:36.764Z,14.00
2018-11-10T11:00:09.883Z,14.00
2018-11-10T11:02:43.910Z,14.10
2018-11-10T11:05:16.519Z,14.20
2018-11-10T11:07:44.951Z,14.20
2018-11-10T11:10:13.323Z,14.30
2018-11-10T11:12:41.676Z,14.40
2018-11-10T11:15:10.131Z,14.40
2018-11-10T11:17:38.488Z,14.50
2018-11-10T11:20:07.221Z,14.50
2018-11-10T11:22:35.628Z,14.50
2018-11-10T11:25:04.167Z,14.50
2018-11-10T11:27:32.521Z,14.50
2018-11-10T11:30:00.845Z,14.60
2018-11-10T11:32:29.814Z,14.60
2018-11-10T11:35:01.457Z,14.70
2018-11-10T11:37:30.060Z,14.60
2018-11-10T11:39:59.688Z,14.70
2018-11-10T11:42:28.268Z,14.60
2018-11-10T11:44:57.587Z,14.60
2018-11-10T11:47:27.158Z,14.60
2018-11-10T11:49:55.921Z,14.60
2018-11-10T11:52:24.211Z,14.60
2018-11-10T11:54:52.540Z,14.60
2018-11-10T11:57:23.943Z,14.60
2018-11-10T11:59:52.293Z,14.60
2018-11-10T12:02:21.057Z,14.60
2018-11-10T12:04:49.370Z,14.60
2018-11-10T12:07:17.820Z,14.70
2018-11-10T12:09:46.175Z,14.60
2018-11-10T12:12:14.672Z,14.70
2018-11-10T12:14:43.282Z,14.70
2018-11-10T12:17:11.675Z,14.70
2018-11-10T12:19:40.268Z,14.80
2018-11-10T12:22:08.754Z,14.80
2018-11-10T12:24:37.440Z,14.90
2018-11-10T12:27:05.946Z,15.00
2018-11-10T12:29:34.538Z,15.00
2018-11-10T12:32:03.343Z,15.00
2018-11-10T12:34:31.628Z,15.00
2018-11-10T12:36:59.927Z,14.90
2018-11-10T12:39:28.260Z,14.90
2018-11-10T12:41:57.607Z,14.90
2018-11-10T12:44:25.880Z,14.80
2018-11-10T12:46:54.321Z,14.90
2018-11-10T12:49:22.823Z,14.80
2018-11-10T12:51:51.204Z,14.70
2018-11-10T12:54:19.582Z,14.60
2018-11-10T12:56:47.890Z,14.60
2018-11-10T12:59:17.775Z,14.60
2018-11-10T13:01:46.151Z,14.70
2018-11-10T13:04:15.116Z,14.50
2018-11-10T13:06:43.663Z,14.50
2018-11-10T13:09:12.445Z,14.40
2018-11-10T13:11:41.174Z,14.30
2018-11-10T13:14:11.308Z,14.40
2018-11-10T13:16:40.073Z,14.40
2018-11-10T13:19:09.816Z,14.40
2018-11-10T13:21:38.524Z,14.30
2018-11-10T13:24:07.022Z,14.30
2018-11-10T13:26:35.299Z,14.20
2018-11-10T13:29:03.793Z,14.10
2018-11-10T13:31:32.658Z,14.20
2018-11-10T13:34:00.937Z,14.20
2018-11-10T13:36:29.360Z,14.10
2018-11-10T13:38:57.990Z,14.20
2018-11-10T13:41:26.334Z,14.10
2018-11-10T13:43:54.846Z,14.00
2018-11-10T13:46:23.422Z,14.00
2018-11-10T13:48:51.995Z,14.00
2018-11-10T13:51:20.944Z,14.00
2018-11-10T13:53:49.459Z,14.00
2018-11-10T13:56:18.004Z,14.00
2018-11-10T13:58:46.521Z,14.00
2018-11-10T14:01:14.852Z,14.00
2018-11-10T14:03:43.346Z,14.00
2018-11-10T14:06:11.690Z,14.10
2018-11-10T14:08:39.972Z,14.00
2018-11-10T14:11:08.321Z,14.10
2018-11-10T14:13:36.622Z,14.00
2018-11-10T14:16:05.043Z,14.00
2018-11-10T14:18:33.399Z,14.00
2018-11-10T14:21:02.102Z,14.20
2018-11-10T14:23:30.684Z,14.10
2018-11-10T14:25:58.986Z,14.10
2018-11-10T14:28:27.582Z,14.00
2018-11-10T14:30:56.125Z,14.00
2018-11-10T14:33:24.972Z,14.00
2018-11-10T14:35:53.527Z,13.90
2018-11-10T14:38:21.867Z,13.90
2018-11-10T14:40:50.146Z,13.90
2018-11-10T14:43:18.476Z,13.80
2018-11-10T14:45:46.747Z,13.80
2018-11-10T14:48:15.085Z,13.80
2018-11-10T14:50:43.399Z,13.80
2018-11-10T14:53:11.897Z,13.80
2018-11-10T14:55:39.980Z,13.70
2018-11-10T14:58:08.295Z,13.70
2018-11-10T15:00:36.650Z,13.70
2018-11-10T15:03:05.180Z,13.80
2018-11-10T15:05:33.657Z,13.70
2018-11-10T15:08:02.326Z,13.70
2018-11-10T15:10:30.835Z,13.70
2018-11-10T15:12:59.246Z,13.70
2018-11-10T15:15:28.129Z,13.60
2018-11-10T15:17:56.647Z,13.60
2018-11-10T15:20:24.747Z,13.60
2018-11-10T15:22:53.496Z,13.60
2018-11-10T15:25:21.908Z,13.60
2018-11-10T15:27:50.128Z,13.50
2018-11-10T15:30:19.811Z,13.50
2018-11-10T15:32:48.555Z,13.50
2018-11-10T15:35:18.334Z,13.50
2018-11-10T15:37:47.992Z,13.50
2018-11-10T15:40:16.919Z,13.50
2018-11-10T15:42:45.305Z,13.50
2018-11-10T15:45:15.217Z,13.50
2018-11-10T15:47:44.525Z,13.40
2018-11-10T15:50:14.299Z,13.50
2018-11-10T15:52:42.868Z,13.50
2018-11-10T15:55:12.531Z,13.40
2018-11-10T15:57:41.568Z,13.40
2018-11-10T16:00:12.653Z,13.40
2018-11-10T16:02:41.452Z,13.40
2018-11-10T16:05:10.985Z,13.50
2018-11-10T16:07:39.813Z,13.40
2018-11-10T16:10:08.452Z,13.40
2018-11-10T16:12:37.884Z,13.40
2018-11-10T16:15:09.102Z,13.40
2018-11-10T16:17:37.487Z,13.40
2018-11-10T16:20:08.382Z,13.40
2018-11-10T16:22:36.656Z,13.40
2018-11-10T16:25:05.981Z,13.50
2018-11-10T16:27:34.295Z,13.50
2018-11-10T16:30:02.633Z,13.50
2018-11-10T16:32:30.907Z,13.50
2018-11-10T16:34:59.184Z,13.40
2018-11-10T16:37:27.502Z,13.50
2018-11-10T16:39:55.785Z,13.50
2018-11-10T16:42:24.078Z,13.50
2018-11-10T16:44:52.517Z,13.50
2018-11-10T16:47:21.220Z,13.50
2018-11-10T16:49:49.954Z,13.50
2018-11-10T16:52:18.571Z,13.50
2018-11-10T16:54:47.314Z,13.50
2018-11-10T16:57:15.990Z,13.50
2018-11-10T16:59:44.890Z,13.50
2018-11-10T17:02:13.331Z,13.50
2018-11-10T17:04:41.639Z,13.50
2018-11-10T17:07:10.003Z,13.50
2018-11-10T17:09:38.341Z,13.50
2018-11-10T17:12:10.262Z,13.50
2018-11-10T17:14:39.621Z,13.50
2018-11-10T17:17:08.899Z,13.50
2018-11-10T17:19:37.327Z,13.50
2018-11-10T17:22:06.041Z,13.50
2018-11-10T17:24:34.301Z,13.50
2018-11-10T17:27:02.700Z,13.50
2018-11-10T17:29:31.108Z,13.50
2018-11-10T17:31:59.548Z,13.50
2018-11-10T17:34:29.211Z,13.50
2018-11-10T17:36:57.995Z,13.50
2018-11-10T17:39:27.311Z,13.50
2018-11-10T17:41:56.017Z,13.60
2018-11-10T17:44:24.651Z,13.60
2018-11-10T17:46:53.099Z,13.60
2018-11-10T17:49:21.445Z,13.60
2018-11-10T17:51:49.760Z,13.60
2018-11-10T17:54:18.092Z,13.60
2018-11-10T17:56:47.085Z,13.60
2018-11-10T17:59:15.501Z,13.60
2018-11-10T18:01:43.965Z,13.60
2018-11-10T18:04:12.245Z,13.50
2018-11-10T18:06:41.437Z,13.60
2018-11-10T18:09:11.106Z,13.60
2018-11-10T18:11:40.109Z,13.60
2018-11-10T18:14:08.755Z,13.50
2018-11-10T18:16:37.079Z,13.50
2018-11-10T18:19:05.735Z,13.50
2018-11-10T18:21:34.250Z,13.50
2018-11-10T18:24:03.024Z,13.50
2018-11-10T18:26:31.986Z,13.50
2018-11-10T18:29:00.948Z,13.60
2018-11-10T18:31:29.350Z,13.60
2018-11-10T18:33:57.760Z,13.60
2018-11-10T18:36:26.119Z,13.60
2018-11-10T18:38:54.584Z,13.70
2018-11-10T18:41:23.017Z,13.70
2018-11-10T18:43:51.405Z,13.80
2018-11-10T18:46:19.740Z,13.80
2018-11-10T18:48:48.080Z,13.80
2018-11-10T18:51:16.393Z,13.80
2018-11-10T18:53:44.792Z,13.80
2018-11-10T18:56:13.862Z,13.80
2018-11-10T18:58:42.636Z,13.80
2018-11-10T19:01:11.185Z,13.80
2018-11-10T19:03:39.975Z,13.80
2018-11-10T19:06:09.155Z,13.80
2018-11-10T19:08:37.824Z,13.80
2018-11-10T19:11:08.160Z,13.80
2018-11-10T19:13:36.944Z,13.80
2018-11-10T19:16:05.431Z,13.80
2018-11-10T19:18:34.040Z,13.80
2018-11-10T19:21:02.578Z,13.80
2018-11-10T19:23:30.835Z,13.80
2018-11-10T19:25:59.599Z,13.90
2018-11-10T19:28:33.358Z,13.90
2018-11-10T19:31:01.864Z,13.90
2018-11-10T19:33:30.367Z,13.90
2018-11-10T19:35:58.872Z,13.90
2018-11-10T19:38:27.499Z,13.90
2018-11-10T19:40:56.014Z,13.90
2018-11-10T19:43:24.479Z,13.90
2018-11-10T19:45:56.850Z,13.90
2018-11-10T19:48:25.861Z,13.90
2018-11-10T19:50:54.422Z,13.90
2018-11-10T19:53:22.801Z,13.90
2018-11-10T19:55:51.215Z,13.90
2018-11-10T19:58:19.824Z,13.80
2018-11-10T20:00:48.925Z,13.80
2018-11-10T20:03:18.512Z,13.80
2018-11-10T20:05:48.253Z,13.70
2018-11-10T20:08:16.841Z,13.70
2018-11-10T20:10:45.289Z,13.60
2018-11-10T20:13:13.620Z,13.60
2018-11-10T20:15:42.127Z,13.50
2018-11-10T20:18:10.421Z,13.50
2018-11-10T20:20:38.748Z,13.50
2018-11-10T20:23:07.063Z,13.40
2018-11-10T20:25:35.427Z,13.40
2018-11-10T20:28:04.138Z,13.40
2018-11-10T20:30:32.567Z,13.40
2018-11-10T20:33:01.010Z,13.40
2018-11-10T20:35:29.551Z,13.30
2018-11-10T20:37:57.988Z,13.30
2018-11-10T20:40:26.605Z,13.30
2018-11-10T20:42:55.763Z,13.30
2018-11-10T20:45:24.549Z,13.20
2018-11-10T20:47:53.457Z,13.30
2018-11-10T20:50:22.162Z,13.20
2018-11-10T20:52:50.718Z,13.20
2018-11-10T20:55:19.157Z,13.20
2018-11-10T20:57:47.452Z,13.20
2018-11-10T21:00:17.487Z,13.20
2018-11-10T21:02:46.358Z,13.20
2018-11-10T21:05:16.070Z,13.20
2018-11-10T21:07:44.372Z,13.20
2018-11-10T21:10:15.432Z,13.20
2018-11-10T21:12:44.780Z,13.20
2018-11-10T21:15:14.060Z,13.20
2018-11-10T21:17:42.448Z,13.20
2018-11-10T21:20:11.881Z,13.20
2018-11-10T21:22:40.583Z,13.20
2018-11-10T21:25:11.084Z,13.10
2018-11-10T21:27:40.038Z,13.10
2018-11-10T21:30:09.676Z,13.10
2018-11-10T21:32:38.047Z,13.00
2018-11-10T21:35:06.864Z,13.10
2018-11-10T21:37:35.543Z,13.10
2018-11-10T21:40:05.218Z,13.10
2018-11-10T21:42:33.800Z,13.10
2018-11-10T21:45:03.012Z,13.10
2018-11-10T21:47:31.912Z,13.10
2018-11-10T21:50:00.739Z,13.10
2018-11-10T21:52:29.135Z,13.10
2018-11-10T21:54:57.464Z,13.00
2018-11-10T21:57:25.831Z,13.00
2018-11-10T21:59:54.179Z,13.00
2018-11-10T22:02:22.541Z,13.00
2018-11-10T22:04:50.810Z,13.00
2018-11-10T22:07:19.117Z,13.00
2018-11-10T22:09:48.324Z,13.00
2018-11-10T22:12:16.673Z,13.00
2018-11-10T22:14:45.163Z,13.00
2018-11-10T22:17:13.748Z,12.90
2018-11-10T22:19:42.228Z,13.00
2018-11-10T22:22:10.857Z,12.90
2018-11-10T22:24:39.802Z,12.90
2018-11-10T22:27:08.493Z,12.90
2018-11-10T22:29:37.276Z,12.90
2018-11-10T22:32:05.676Z,12.90
2018-11-10T22:34:34.006Z,12.90
2018-11-10T22:37:02.308Z,12.90
2018-11-10T22:39:30.635Z,12.90
2018-11-10T22:41:59.018Z,12.90
2018-11-10T22:44:27.507Z,12.90
2018-11-10T22:46:55.917Z,13.00
2018-11-10T22:49:24.314Z,13.00
2018-11-10T22:51:52.624Z,13.00
2018-11-10T22:54:20.991Z,12.90
2018-11-10T22:56:49.655Z,13.00
2018-11-10T22:59:18.204Z,13.00
2018-11-10T23:01:46.678Z,13.00
2018-11-10T23:04:15.577Z,13.00
2018-11-10T23:06:44.389Z,13.00
2018-11-10T23:09:12.738Z,13.00
2018-11-10T23:11:41.064Z,13.00
2018-11-10T23:14:09.363Z,13.00
2018-11-10T23:16:37.643Z,12.90
2018-11-10T23:19:06.229Z,12.90
2018-11-10T23:21:34.547Z,12.90
2018-11-10T23:24:03.497Z,12.90
2018-11-10T23:26:31.806Z,12.90
2018-11-10T23:29:01.011Z,12.90
2018-11-10T23:31:29.615Z,12.90
2018-11-10T23:33:58.048Z,12.90
2018-11-10T23:36:26.611Z,12.90
2018-11-10T23:38:55.101Z,12.90
2018-11-10T23:41:23.682Z,12.90
2018-11-10T23:43:52.107Z,12.90
2018-11-10T23:46:20.474Z,12.90
2018-11-10T23:48:48.779Z,12.90
2018-11-10T23:51:17.083Z,12.90
2018-11-10T23:53:46.222Z,12.90
2018-11-10T23:56:14.644Z,12.90
2018-11-10T23:58:42.923Z,12.90
